createdAt,value
2018-04-12T00:00:58.408Z,7.15
2018-04-12T00:03:28.462Z,9.30
2018-04-12T00:05:57.804Z,14.68
2018-04-12T00:08:27.115Z,10.90
2018-04-12T00:10:56.404Z,9.57
2018-04-12T00:13:25.720Z,7.37
2018-04-12T00:15:55.169Z,7.37
2018-04-12T00:18:24.466Z,7.35
2018-04-12T00:20:54.509Z,9.25
2018-04-12T00:23:23.806Z,8.10
2018-04-12T00:25:53.111Z,6.97
2018-04-12T00:28:22.394Z,8.45
2018-04-12T00:30:51.732Z,9.68
2018-04-12T00:33:21.038Z,8.02
2018-04-12T00:35:50.314Z,8.77
2018-04-12T00:38:19.615Z,8.25
2018-04-12T00:40:48.929Z,11.45
2018-04-12T00:43:18.297Z,8.10
2018-04-12T00:45:47.586Z,8.38
2018-04-12T00:48:16.868Z,8.48
2018-04-12T00:50:46.922Z,8.60
2018-04-12T00:53:33.949Z,7.65
2018-04-12T00:56:03.230Z,8.90
2018-04-12T00:58:32.521Z,13.00
2018-04-12T01:01:01.810Z,8.57
2018-04-12T01:28:18.451Z,12.88
2018-04-12T01:30:47.753Z,9.50
2018-04-12T01:33:17.793Z,10.60
2018-04-12T01:35:47.101Z,15.90
2018-04-12T01:38:16.395Z,12.52
2018-04-12T01:40:45.719Z,14.98
2018-04-12T01:43:15.013Z,13.93
2018-04-12T01:45:44.297Z,10.20
2018-04-12T01:48:13.610Z,11.77
2018-04-12T01:50:42.883Z,11.48
2018-04-12T01:53:13.670Z,11.80
2018-04-12T01:55:42.930Z,12.07
2018-04-12T01:58:12.992Z,9.90
2018-04-12T02:00:42.300Z,10.07
2018-04-12T02:03:11.620Z,11.05
2018-04-12T02:05:40.914Z,14.07
2018-04-12T02:08:10.206Z,11.68
2018-04-12T02:10:39.511Z,11.63
2018-04-12T02:13:08.802Z,11.75
2018-04-12T02:15:38.097Z,12.32
2018-04-12T02:18:07.418Z,13.27
2018-04-12T02:20:36.708Z,13.07
2018-04-12T02:23:06.002Z,12.57
2018-04-12T02:25:35.310Z,10.93
2018-04-12T02:28:04.624Z,15.20
2018-04-12T02:30:33.917Z,11.70
2018-04-12T02:33:03.578Z,13.35
2018-04-12T02:35:32.878Z,12.32
2018-04-12T02:38:02.197Z,13.98
2018-04-12T02:40:31.537Z,13.62
2018-04-12T02:43:00.833Z,16.77
2018-04-12T02:45:30.774Z,16.23
2018-04-12T02:48:01.846Z,14.80
2018-04-12T02:50:31.186Z,12.25
2018-04-12T02:53:00.563Z,17.17
2018-04-12T02:55:29.862Z,12.15
2018-04-12T02:57:59.180Z,16.58
2018-04-12T03:00:28.480Z,16.33
2018-04-12T03:02:57.819Z,11.52
2018-04-12T03:05:27.878Z,13.00
2018-04-12T03:07:57.195Z,16.48
2018-04-12T03:10:26.508Z,14.35
2018-04-12T03:12:55.814Z,12.45
2018-04-12T03:15:25.135Z,14.45
2018-04-12T03:17:54.468Z,17.20
2018-04-12T03:20:23.797Z,13.65
2018-04-12T03:22:53.155Z,17.37
2018-04-12T03:25:23.276Z,12.73
2018-04-12T03:27:52.558Z,12.95
2018-04-12T03:30:21.899Z,17.87
2018-04-12T03:32:51.194Z,12.98
2018-04-12T03:35:20.531Z,14.32
2018-04-12T03:37:49.842Z,17.20
2018-04-12T03:42:52.993Z,14.30
2018-04-12T03:45:22.316Z,15.32
2018-04-12T03:47:51.610Z,18.58
2018-04-12T03:50:20.924Z,15.50
2018-04-12T03:52:50.215Z,16.77
2018-04-12T03:55:19.511Z,13.10
2018-04-12T03:57:49.747Z,15.00
2018-04-12T04:00:19.042Z,15.82
2018-04-12T04:02:48.527Z,12.77
2018-04-12T04:05:17.827Z,14.30
2018-04-12T04:07:47.147Z,20.10
2018-04-12T04:10:16.445Z,15.13
2018-04-12T04:12:45.775Z,17.23
2018-04-12T04:15:32.690Z,20.45
2018-04-12T04:21:10.589Z,19.35
2018-04-12T04:23:39.880Z,18.27
2018-04-12T04:26:09.201Z,19.65
2018-04-12T04:28:38.595Z,14.18
2018-04-12T04:31:07.994Z,19.20
2018-04-12T04:33:37.376Z,14.95
2018-04-12T04:36:06.740Z,17.85
2018-04-12T04:38:36.213Z,18.17
2018-04-12T04:41:05.519Z,22.35
2018-04-12T04:43:34.813Z,19.85
2018-04-12T04:46:04.324Z,23.08
2018-04-12T04:48:33.774Z,19.73
2018-04-12T04:51:03.848Z,17.10
2018-04-12T04:53:33.137Z,23.58
2018-04-12T04:56:02.468Z,15.07
2018-04-12T04:58:31.792Z,18.45
2018-04-12T05:01:01.879Z,19.67
2018-04-12T05:03:31.176Z,21.60
2018-04-12T05:06:00.478Z,20.37
2018-04-12T05:08:29.802Z,18.30
2018-04-12T05:10:59.911Z,18.17
2018-04-12T05:13:29.208Z,18.87
2018-04-12T05:15:58.503Z,17.08
2018-04-12T05:18:27.811Z,22.77
2018-04-12T05:20:57.118Z,16.92
2018-04-12T05:23:26.432Z,26.87
2018-04-12T05:25:55.719Z,18.12
2018-04-12T05:28:25.047Z,19.85
2018-04-12T05:30:55.100Z,19.50
2018-04-12T05:33:25.041Z,20.75
2018-04-12T05:35:54.350Z,19.35
2018-04-12T05:38:23.666Z,21.73
2018-04-12T05:40:53.786Z,20.83
2018-04-12T05:43:23.065Z,26.87
2018-04-12T05:45:52.429Z,23.95
2018-04-12T05:48:21.733Z,16.27
2018-04-12T05:50:51.043Z,17.20
2018-04-12T05:53:20.346Z,16.02
2018-04-12T05:55:49.695Z,17.17
2018-04-12T05:58:19.774Z,18.05
2018-04-12T06:00:49.075Z,17.48
2018-04-12T06:03:19.023Z,21.42
2018-04-12T06:05:49.088Z,21.67
2018-04-12T06:08:18.398Z,21.92
2018-04-12T06:10:47.703Z,18.87
2018-04-12T06:13:17.020Z,18.05
2018-04-12T06:15:46.312Z,25.02
2018-04-12T06:18:15.642Z,24.60
2018-04-12T06:20:45.725Z,18.17
2018-04-12T06:23:15.038Z,18.35
2018-04-12T06:25:44.340Z,20.12
2018-04-12T06:28:13.632Z,18.87
2018-04-12T06:30:42.945Z,20.10
2018-04-12T06:33:12.235Z,21.12
2018-04-12T06:35:41.566Z,15.00
2018-04-12T06:38:10.854Z,17.52
2018-04-12T06:40:40.154Z,15.98
2018-04-12T06:43:09.452Z,13.73
2018-04-12T06:45:38.754Z,13.62
2018-04-12T06:48:08.048Z,20.73
2018-04-12T06:50:37.349Z,18.25
2018-04-12T06:53:06.652Z,20.23
2018-04-12T06:55:36.060Z,15.68
2018-04-12T06:58:05.365Z,20.95
2018-04-12T07:00:34.687Z,21.83
2018-04-12T07:03:05.362Z,17.00
2018-04-12T07:05:34.675Z,19.85
2018-04-12T07:08:03.981Z,12.98
2018-04-12T07:10:33.292Z,15.35
2018-04-12T07:13:02.593Z,14.60
2018-04-12T07:15:32.893Z,14.23
2018-04-12T07:18:03.174Z,15.73
2018-04-12T07:20:32.474Z,19.77
2018-04-12T07:23:01.753Z,15.07
2018-04-12T07:25:31.827Z,16.10
2018-04-12T07:28:01.113Z,20.25
2018-04-12T07:30:30.440Z,17.15
2018-04-12T07:32:59.730Z,15.38
2018-04-12T07:35:29.044Z,18.27
2018-04-12T07:37:58.344Z,19.15
2018-04-12T07:40:27.630Z,14.32
2018-04-12T07:42:56.957Z,13.60
2018-04-12T07:45:26.257Z,14.32
2018-04-12T07:47:55.564Z,14.45
2018-04-12T07:50:24.857Z,19.25
2018-04-12T07:52:54.159Z,23.35
2018-04-12T07:55:23.477Z,14.98
2018-04-12T07:57:52.779Z,14.52
2018-04-12T08:00:22.082Z,18.85
2018-04-12T08:02:52.166Z,18.30
2018-04-12T08:05:21.502Z,19.20
2018-04-12T08:07:51.614Z,21.73
2018-04-12T08:10:21.727Z,18.98
2018-04-12T08:12:51.043Z,15.90
2018-04-12T08:15:20.416Z,18.60
2018-04-12T08:17:49.727Z,17.23
2018-04-12T08:20:19.043Z,16.15
2018-04-12T08:22:48.342Z,14.95
2018-04-12T08:25:18.404Z,23.02
2018-04-12T08:27:47.687Z,20.20
2018-04-12T08:30:17.766Z,17.27
2018-04-12T08:32:47.298Z,13.07
2018-04-12T08:35:17.358Z,12.90
2018-04-12T08:37:46.662Z,16.77
2018-04-12T08:40:15.961Z,11.12
2018-04-12T08:42:45.339Z,14.45
2018-04-12T08:45:14.694Z,12.52
2018-04-12T08:47:43.993Z,8.50
2018-04-12T08:50:13.282Z,6.10
2018-04-12T08:52:42.572Z,7.15
2018-04-12T08:55:11.871Z,10.55
2018-04-12T08:57:41.175Z,9.85
2018-04-12T09:00:10.458Z,7.25
2018-04-12T09:02:39.760Z,8.75
2018-04-12T09:05:09.063Z,6.65
2018-04-12T09:07:38.369Z,10.98
2018-04-12T09:10:07.649Z,11.00
2018-04-12T09:12:36.940Z,8.10
2018-04-12T09:15:06.257Z,6.62
2018-04-12T09:17:36.289Z,9.55
2018-04-12T09:20:05.602Z,12.27
2018-04-12T09:22:34.882Z,6.82
2018-04-12T09:25:04.182Z,6.05
2018-04-12T09:27:33.478Z,9.63
2018-04-12T09:30:03.630Z,7.25
2018-04-12T09:32:32.938Z,6.25
2018-04-12T09:35:02.210Z,4.37
2018-04-12T09:37:31.493Z,5.75
2018-04-12T09:40:00.825Z,7.47
2018-04-12T09:42:30.092Z,3.80
2018-04-12T09:44:59.381Z,4.85
2018-04-12T09:47:28.674Z,5.68
2018-04-12T09:49:58.728Z,17.05
2018-04-12T09:52:28.031Z,4.90
2018-04-12T09:54:57.337Z,5.65
2018-04-12T09:57:26.619Z,5.35
2018-04-12T09:59:55.941Z,8.50
2018-04-12T10:02:28.925Z,3.50
2018-04-12T10:05:01.008Z,3.00
2018-04-12T10:07:35.815Z,4.05
2018-04-12T10:10:05.094Z,3.80
2018-04-12T10:12:34.394Z,3.92
2018-04-12T10:15:03.683Z,4.82
2018-04-12T10:17:33.766Z,4.43
2018-04-12T10:20:03.063Z,2.40
2018-04-12T10:22:32.362Z,3.47
2018-04-12T10:25:01.667Z,2.25
2018-04-12T10:27:30.946Z,1.80
2018-04-12T10:30:00.235Z,4.35
2018-04-12T10:32:29.521Z,2.65
2018-04-12T10:34:58.873Z,2.87
2018-04-12T10:37:28.172Z,2.05
2018-04-12T10:39:57.460Z,2.20
2018-04-12T10:42:26.757Z,6.12
2018-04-12T10:44:56.935Z,3.30
2018-04-12T10:47:27.108Z,2.85
2018-04-12T10:49:56.455Z,1.85
2018-04-12T10:52:25.799Z,7.25
2018-04-12T10:54:55.099Z,2.08
2018-04-12T10:57:24.447Z,2.75
2018-04-12T10:59:54.534Z,7.18
2018-04-12T11:02:23.883Z,2.25
2018-04-12T11:04:53.961Z,2.00
2018-04-12T11:07:23.329Z,2.85
2018-04-12T11:09:52.617Z,1.95
2018-04-12T11:12:22.333Z,2.15
2018-04-12T11:14:51.627Z,2.20
2018-04-12T11:17:20.905Z,2.87
2018-04-12T11:19:50.205Z,1.40
2018-04-12T11:24:55.836Z,2.12
2018-04-12T11:27:25.118Z,1.60
2018-04-12T11:29:54.403Z,1.42
2018-04-12T11:32:23.685Z,1.55
2018-04-12T11:34:52.978Z,3.05
2018-04-12T11:37:22.292Z,1.40
2018-04-12T11:39:51.587Z,1.23
2018-04-12T11:42:20.886Z,3.08
2018-04-12T11:44:50.166Z,1.20
2018-04-12T11:47:20.266Z,1.70
2018-04-12T11:49:49.568Z,1.95
2018-04-12T11:52:19.251Z,1.23
2018-04-12T11:54:48.702Z,1.48
2018-04-12T11:57:18.339Z,1.90
2018-04-12T11:59:47.768Z,2.10
2018-04-12T12:02:17.887Z,1.70
2018-04-12T12:04:48.628Z,1.52
2018-04-12T12:07:18.700Z,1.98
2018-04-12T12:09:48.976Z,1.50
2018-04-12T12:12:19.132Z,1.48
2018-04-12T12:14:49.286Z,1.20
2018-04-12T12:17:21.476Z,1.92
2018-04-12T12:19:51.412Z,1.17
2018-04-12T12:22:23.383Z,1.50
2018-04-12T12:24:54.049Z,1.50
2018-04-12T12:27:26.620Z,2.30
2018-04-12T12:29:59.597Z,3.17
2018-04-12T12:32:31.969Z,1.20
2018-04-12T12:35:02.724Z,2.75
2018-04-12T12:37:35.747Z,2.67
2018-04-12T12:40:06.066Z,4.10
2018-04-12T12:42:35.458Z,1.70
2018-04-12T12:45:04.735Z,2.20
2018-04-12T12:47:34.026Z,1.50
2018-04-12T12:50:03.337Z,1.75
2018-04-12T12:52:32.623Z,1.80
2018-04-12T12:55:02.701Z,2.10
2018-04-12T12:57:31.995Z,1.50
2018-04-12T13:00:01.266Z,1.52
2018-04-12T13:02:30.571Z,3.55
2018-04-12T13:04:59.851Z,2.28
2018-04-12T13:07:29.138Z,1.40
2018-04-12T13:09:59.253Z,2.55
2018-04-12T13:12:29.369Z,4.68
2018-04-12T13:14:59.752Z,1.95
2018-04-12T13:17:29.033Z,1.83
2018-04-12T13:19:58.353Z,1.65
2018-04-12T13:22:27.642Z,1.80
2018-04-12T13:24:56.972Z,1.95
2018-04-12T13:27:26.226Z,1.75
2018-04-12T13:29:55.524Z,2.58
2018-04-12T13:32:24.814Z,3.17
2018-04-12T13:34:54.651Z,2.03
2018-04-12T13:37:23.932Z,6.22
2018-04-12T13:39:53.224Z,6.05
2018-04-12T13:42:22.526Z,2.33
2018-04-12T13:44:51.818Z,2.28
2018-04-12T13:47:21.887Z,2.45
2018-04-12T13:49:51.172Z,7.62
2018-04-12T13:52:23.360Z,5.53
2018-04-12T13:54:53.595Z,2.42
2018-04-12T13:57:22.894Z,1.67
2018-04-12T13:59:52.169Z,2.10
2018-04-12T14:02:21.482Z,2.97
2018-04-12T14:04:50.776Z,3.67
2018-04-12T14:07:20.100Z,3.20
2018-04-12T14:09:49.360Z,1.90
2018-04-12T14:12:18.673Z,2.53
2018-04-12T14:14:47.969Z,1.55
2018-04-12T14:17:17.302Z,1.62
2018-04-12T14:19:46.542Z,3.00
2018-04-12T14:22:15.895Z,1.85
2018-04-12T14:24:45.169Z,2.03
2018-04-12T14:27:14.449Z,3.05
2018-04-12T14:29:43.773Z,6.80
2018-04-12T14:32:13.036Z,3.65
2018-04-12T14:34:42.428Z,3.90
2018-04-12T14:37:11.795Z,3.22
2018-04-12T14:39:41.129Z,2.10
2018-04-12T14:42:11.180Z,5.75
2018-04-12T14:44:40.562Z,2.37
2018-04-12T14:47:10.614Z,2.75
2018-04-12T14:49:39.911Z,2.25
2018-04-12T14:52:09.197Z,3.25
2018-04-12T14:54:38.487Z,6.85
2018-04-12T14:57:07.842Z,12.00
2018-04-12T14:59:37.143Z,6.90
2018-04-12T15:02:07.438Z,5.57
2018-04-12T15:04:37.286Z,5.62
2018-04-12T15:07:06.578Z,3.62
2018-04-12T15:09:35.859Z,3.87
2018-04-12T15:12:05.243Z,2.75
2018-04-12T15:14:35.200Z,1.50
2018-04-12T15:17:07.146Z,6.05
2018-04-12T15:19:36.532Z,11.32
2018-04-12T15:22:05.835Z,9.32
2018-04-12T15:24:35.112Z,8.30
2018-04-12T15:27:04.414Z,10.95
2018-04-12T15:29:33.771Z,16.08
2018-04-12T15:32:03.164Z,9.30
2018-04-12T15:34:32.404Z,25.90
2018-04-12T15:37:01.775Z,11.25
2018-04-12T15:39:31.202Z,7.60
2018-04-12T15:42:00.522Z,10.38
2018-04-12T15:44:29.818Z,7.62
2018-04-12T15:46:59.878Z,5.57
2018-04-12T15:49:29.156Z,8.88
2018-04-12T15:51:58.460Z,4.43
2018-04-12T15:54:27.756Z,4.72
2018-04-12T15:56:57.049Z,5.57
2018-04-12T15:59:26.335Z,6.60
2018-04-12T16:01:55.642Z,1.87
2018-04-12T16:04:24.963Z,3.67
2018-04-12T16:06:54.283Z,3.58
2018-04-12T16:09:23.560Z,1.33
2018-04-12T16:11:52.872Z,3.70
2018-04-12T16:14:22.184Z,4.70
2018-04-12T16:16:51.479Z,1.60
2018-04-12T16:19:20.770Z,4.82
2018-04-12T16:21:50.059Z,6.10
2018-04-12T16:24:19.347Z,4.50
2018-04-12T16:26:48.635Z,4.87
2018-04-12T16:29:18.726Z,2.75
2018-04-12T16:31:48.002Z,1.83
2018-04-12T16:34:17.286Z,4.10
2018-04-12T16:36:46.642Z,6.50
2018-04-12T16:39:15.927Z,3.70
2018-04-12T16:41:45.229Z,4.00
2018-04-12T16:44:14.507Z,3.60
2018-04-12T16:46:43.791Z,2.75
2018-04-12T16:49:13.088Z,1.90
2018-04-12T16:51:42.375Z,2.53
2018-04-12T16:54:11.642Z,4.18
2018-04-12T16:56:41.688Z,3.60
2018-04-12T16:59:10.996Z,2.33
2018-04-12T17:01:40.279Z,3.92
2018-04-12T17:04:09.592Z,1.45
2018-04-12T17:06:38.874Z,1.27
2018-04-12T17:09:08.925Z,8.65
2018-04-12T17:11:38.215Z,3.00
2018-04-12T17:14:07.484Z,2.05
2018-04-12T17:16:37.559Z,1.70
2018-04-12T17:19:07.485Z,1.40
2018-04-12T17:21:36.782Z,1.87
2018-04-12T17:24:06.060Z,3.53
2018-04-12T17:26:35.378Z,5.62
2018-04-12T17:29:04.664Z,1.77
2018-04-12T17:31:33.947Z,1.62
2018-04-12T17:34:03.245Z,2.65
2018-04-12T17:36:32.511Z,4.07
2018-04-12T17:39:01.821Z,3.65
2018-04-12T17:41:31.098Z,3.00
2018-04-12T17:44:00.385Z,3.45
2018-04-12T17:46:29.671Z,2.28
2018-04-12T17:48:58.967Z,2.25
2018-04-12T17:51:28.258Z,5.32
2018-04-12T17:53:57.543Z,1.98
2018-04-12T17:56:26.847Z,1.77
2018-04-12T17:58:56.150Z,2.97
2018-04-12T18:01:25.427Z,7.18
2018-04-12T18:03:55.504Z,7.15
2018-04-12T18:06:24.794Z,8.57
2018-04-12T18:08:54.085Z,14.02
2018-04-12T18:11:23.390Z,11.00
2018-04-12T18:13:53.461Z,11.25
2018-04-12T18:16:23.512Z,9.85
2018-04-12T18:18:52.818Z,11.80
2018-04-12T18:21:22.118Z,15.13
2018-04-12T18:23:51.422Z,14.20
2018-04-12T18:26:21.375Z,12.10
2018-04-12T18:28:50.617Z,13.38
2018-04-12T18:31:19.929Z,11.38
2018-04-12T18:33:49.234Z,12.07
2018-04-12T18:36:18.534Z,13.95
2018-04-12T18:38:47.821Z,11.02
2018-04-12T18:41:17.152Z,14.85
2018-04-12T18:43:46.403Z,10.60
2018-04-12T18:46:16.473Z,17.83
2018-04-12T18:48:45.818Z,13.20
2018-04-12T18:51:15.880Z,13.70
2018-04-12T18:53:45.172Z,14.85
2018-04-12T18:56:14.462Z,13.18
2018-04-12T18:58:43.768Z,13.00
2018-04-12T19:01:13.068Z,16.30
2018-04-12T19:03:42.405Z,15.27
2018-04-12T19:06:11.745Z,16.42
2018-04-12T19:08:41.808Z,17.58
2018-04-12T19:11:11.105Z,16.83
2018-04-12T19:13:40.418Z,18.95
2018-04-12T19:16:09.728Z,27.85
2018-04-12T19:18:39.164Z,22.02
2018-04-12T19:21:08.475Z,18.77
2018-04-12T19:23:38.553Z,12.45
2018-04-12T19:26:07.842Z,17.90
2018-04-12T19:28:37.153Z,16.75
2018-04-12T19:31:06.441Z,11.68
2018-04-12T19:33:35.736Z,12.75
2018-04-12T19:36:05.041Z,14.82
2018-04-12T19:38:34.366Z,15.32
2018-04-12T19:41:03.668Z,13.68
2018-04-12T19:43:32.954Z,18.25
2018-04-12T19:46:02.251Z,23.52
2018-04-12T19:48:31.543Z,17.33
2018-04-12T19:51:00.845Z,16.65
2018-04-12T19:53:30.150Z,14.60
2018-04-12T19:55:59.442Z,16.52
2018-04-12T19:58:29.560Z,12.00
2018-04-12T20:00:59.582Z,14.95
2018-04-12T20:03:28.889Z,14.52
2018-04-12T20:05:58.180Z,16.17
2018-04-12T20:08:28.231Z,15.57
2018-04-12T20:10:57.907Z,15.20
2018-04-12T20:13:27.177Z,14.23
2018-04-12T20:15:56.471Z,15.68
2018-04-12T20:18:25.775Z,12.60
2018-04-12T20:20:55.107Z,15.55
2018-04-12T20:23:24.459Z,19.25
2018-04-12T20:25:53.759Z,16.35
2018-04-12T20:28:23.829Z,16.33
2018-04-12T20:30:53.124Z,17.20
2018-04-12T20:33:22.407Z,15.93
2018-04-12T20:35:51.713Z,18.92
2018-04-12T20:38:21.005Z,15.65
2018-04-12T20:40:50.289Z,16.85
2018-04-12T20:43:19.624Z,15.98
2018-04-12T20:45:48.942Z,15.93
2018-04-12T20:48:19.042Z,19.23
2018-04-12T20:50:48.367Z,17.42
2018-04-12T20:53:17.669Z,20.48
2018-04-12T20:55:46.952Z,15.88
2018-04-12T20:58:16.254Z,14.93
2018-04-12T21:00:45.548Z,18.30
2018-04-12T21:03:14.854Z,17.65
2018-04-12T21:05:44.148Z,15.85
2018-04-12T21:08:13.481Z,18.27
2018-04-12T21:10:42.751Z,18.17
2018-04-12T21:13:12.037Z,20.30
2018-04-12T21:15:41.321Z,18.48
2018-04-12T21:18:10.615Z,19.20
2018-04-12T21:20:39.933Z,13.95
2018-04-12T21:23:09.222Z,17.17
2018-04-12T21:25:38.510Z,18.25
2018-04-12T21:28:08.579Z,18.20
2018-04-12T21:30:37.872Z,15.90
2018-04-12T21:33:07.241Z,18.30
2018-04-12T21:35:37.398Z,24.92
2018-04-12T21:38:06.700Z,22.52
2018-04-12T21:40:35.983Z,17.77
2018-04-12T21:43:05.291Z,18.35
2018-04-12T21:45:34.600Z,17.25
2018-04-12T21:48:03.918Z,16.12
2018-04-12T21:50:33.197Z,19.48
2018-04-12T21:53:02.508Z,17.83
2018-04-12T21:55:31.803Z,19.67
2018-04-12T21:58:01.090Z,18.23
2018-04-12T22:00:30.389Z,20.58
2018-04-12T22:02:59.690Z,16.25
2018-04-12T22:05:29.012Z,19.00
2018-04-12T22:07:58.306Z,15.80
2018-04-12T22:10:27.618Z,18.15
2018-04-12T22:12:56.918Z,20.62
2018-04-12T22:15:26.224Z,19.90
2018-04-12T22:17:55.529Z,15.70
2018-04-12T22:20:24.831Z,21.80
2018-04-12T22:22:54.127Z,24.17
2018-04-12T22:25:23.459Z,15.63
2018-04-12T22:27:53.543Z,23.08
2018-04-12T22:30:22.838Z,16.67
2018-04-12T22:32:52.134Z,24.87
2018-04-12T22:35:21.427Z,19.73
2018-04-12T22:37:50.743Z,22.23
2018-04-12T22:40:20.036Z,16.45
2018-04-12T22:42:49.319Z,22.55
2018-04-12T22:47:48.126Z,18.83
2018-04-12T22:50:17.437Z,22.33
2018-04-12T22:55:15.512Z,21.75
2018-04-12T22:57:44.805Z,22.50
2018-04-12T23:00:14.122Z,25.25
2018-04-12T23:02:43.173Z,16.20
2018-04-12T23:05:13.218Z,19.85
2018-04-12T23:07:42.541Z,18.20
2018-04-12T23:10:11.840Z,20.02
2018-04-12T23:12:41.135Z,20.33
2018-04-12T23:15:10.441Z,20.27
2018-04-12T23:17:39.735Z,18.98
2018-04-12T23:22:44.607Z,18.90
2018-04-12T23:25:15.408Z,16.87
2018-04-12T23:27:44.722Z,18.17
2018-04-12T23:30:14.058Z,20.88
2018-04-12T23:32:43.352Z,17.65
2018-04-12T23:35:12.647Z,19.67
2018-04-12T23:37:41.952Z,19.00
2018-04-12T23:40:11.290Z,17.02
2018-04-12T23:42:41.411Z,14.50
2018-04-12T23:45:10.722Z,17.65
2018-04-12T23:47:40.044Z,18.73
2018-04-12T23:50:09.410Z,22.23
2018-04-12T23:52:39.471Z,18.02
2018-04-12T23:55:08.765Z,16.62
2018-04-12T23:57:38.063Z,17.85
